sensor_id;sensor_type;location;lat;lon;timestamp;P1;durP1;ratioP1;P2;durP2;ratioP2
3587;SDS011;1808;53.596;9.972;2022-08-03T00:01:49;8.70;;;7.32;;
3587;SDS011;1808;53.596;9.972;2022-08-03T00:04:16;12.05;;;7.28;;
3587;SDS011;1808;53.596;9.972;2022-08-03T00:06:42;9.63;;;7.50;;
3587;SDS011;1808;53.596;9.972;2022-08-03T00:09:10;10.48;;;7.10;;
3587;SDS011;1808;53.596;9.972;2022-08-03T00:11:36;7.72;;;6.80;;
3587;SDS011;1808;53.596;9.972;2022-08-03T00:14:03;8.80;;;7.05;;
3587;SDS011;1808;53.596;9.972;2022-08-03T00:16:30;11.15;;;7.80;;
3587;SDS011;1808;53.596;9.972;2022-08-03T00:18:56;9.98;;;7.75;;
3587;SDS011;1808;53.596;9.972;2022-08-03T00:21:22;9.35;;;7.10;;
3587;SDS011;1808;53.596;9.972;2022-08-03T00:23:49;8.93;;;7.00;;
3587;SDS011;1808;53.596;9.972;2022-08-03T00:26:16;11.07;;;6.72;;
3587;SDS011;1808;53.596;9.972;2022-08-03T00:28:43;9.40;;;7.28;;
3587;SDS011;1808;53.596;9.972;2022-08-03T00:31:09;7.45;;;6.63;;
3587;SDS011;1808;53.596;9.972;2022-08-03T00:33:35;9.30;;;6.97;;
3587;SDS011;1808;53.596;9.972;2022-08-03T00:36:02;8.98;;;7.05;;
3587;SDS011;1808;53.596;9.972;2022-08-03T00:38:28;10.32;;;7.30;;
3587;SDS011;1808;53.596;9.972;2022-08-03T00:40:55;9.15;;;7.03;;
3587;SDS011;1808;53.596;9.972;2022-08-03T00:43:24;8.82;;;7.43;;
3587;SDS011;1808;53.596;9.972;2022-08-03T00:45:51;9.07;;;6.57;;
3587;SDS011;1808;53.596;9.972;2022-08-03T00:48:18;9.32;;;7.70;;
3587;SDS011;1808;53.596;9.972;2022-08-03T00:50:45;9.05;;;7.68;;
3587;SDS011;1808;53.596;9.972;2022-08-03T00:53:12;8.73;;;7.38;;
3587;SDS011;1808;53.596;9.972;2022-08-03T00:55:39;9.98;;;7.20;;
3587;SDS011;1808;53.596;9.972;2022-08-03T00:58:06;8.77;;;7.53;;
3587;SDS011;1808;53.596;9.972;2022-08-03T01:00:34;8.07;;;7.28;;
3587;SDS011;1808;53.596;9.972;2022-08-03T01:03:02;8.05;;;6.93;;
3587;SDS011;1808;53.596;9.972;2022-08-03T01:05:29;10.93;;;7.20;;
3587;SDS011;1808;53.596;9.972;2022-08-03T01:08:00;9.55;;;7.22;;
3587;SDS011;1808;53.596;9.972;2022-08-03T01:10:31;8.15;;;6.70;;
3587;SDS011;1808;53.596;9.972;2022-08-03T01:15:31;9.20;;;6.68;;
3587;SDS011;1808;53.596;9.972;2022-08-03T01:18:04;7.70;;;7.00;;
3587;SDS011;1808;53.596;9.972;2022-08-03T01:20:35;8.90;;;7.15;;
3587;SDS011;1808;53.596;9.972;2022-08-03T01:23:14;7.22;;;6.40;;
3587;SDS011;1808;53.596;9.972;2022-08-03T01:26:02;7.90;;;6.93;;
3587;SDS011;1808;53.596;9.972;2022-08-03T01:28:41;7.90;;;6.55;;
3587;SDS011;1808;53.596;9.972;2022-08-03T01:31:16;7.35;;;6.65;;
3587;SDS011;1808;53.596;9.972;2022-08-03T01:33:46;7.55;;;6.80;;
3587;SDS011;1808;53.596;9.972;2022-08-03T01:36:17;7.88;;;7.07;;
3587;SDS011;1808;53.596;9.972;2022-08-03T01:38:45;8.20;;;6.70;;
3587;SDS011;1808;53.596;9.972;2022-08-03T01:41:16;7.30;;;6.47;;
3587;SDS011;1808;53.596;9.972;2022-08-03T01:43:44;10.38;;;6.60;;
3587;SDS011;1808;53.596;9.972;2022-08-03T01:46:14;7.55;;;6.82;;
3587;SDS011;1808;53.596;9.972;2022-08-03T01:48:42;9.63;;;6.78;;
3587;SDS011;1808;53.596;9.972;2022-08-03T01:51:09;6.80;;;6.20;;
3587;SDS011;1808;53.596;9.972;2022-08-03T01:53:37;8.55;;;6.57;;
3587;SDS011;1808;53.596;9.972;2022-08-03T01:56:06;8.05;;;7.30;;
3587;SDS011;1808;53.596;9.972;2022-08-03T01:58:33;7.93;;;6.80;;
3587;SDS011;1808;53.596;9.972;2022-08-03T02:01:00;7.80;;;7.10;;
3587;SDS011;1808;53.596;9.972;2022-08-03T02:03:29;8.00;;;6.88;;
3587;SDS011;1808;53.596;9.972;2022-08-03T02:05:56;7.85;;;6.93;;
3587;SDS011;1808;53.596;9.972;2022-08-03T02:08:23;11.23;;;7.45;;
3587;SDS011;1808;53.596;9.972;2022-08-03T02:10:50;7.55;;;6.75;;
3587;SDS011;1808;53.596;9.972;2022-08-03T02:13:17;8.18;;;7.35;;
3587;SDS011;1808;53.596;9.972;2022-08-03T02:15:44;8.60;;;6.72;;
3587;SDS011;1808;53.596;9.972;2022-08-03T02:18:11;8.20;;;7.18;;
3587;SDS011;1808;53.596;9.972;2022-08-03T02:20:40;8.48;;;7.18;;
3587;SDS011;1808;53.596;9.972;2022-08-03T02:23:08;8.88;;;7.32;;
3587;SDS011;1808;53.596;9.972;2022-08-03T02:25:37;9.07;;;6.95;;
3587;SDS011;1808;53.596;9.972;2022-08-03T02:28:07;7.85;;;6.65;;
3587;SDS011;1808;53.596;9.972;2022-08-03T02:30:36;7.35;;;6.63;;
3587;SDS011;1808;53.596;9.972;2022-08-03T02:33:04;7.32;;;6.63;;
3587;SDS011;1808;53.596;9.972;2022-08-03T02:35:32;8.60;;;7.55;;
3587;SDS011;1808;53.596;9.972;2022-08-03T02:38:03;9.77;;;7.22;;
3587;SDS011;1808;53.596;9.972;2022-08-03T02:40:30;9.20;;;7.53;;
3587;SDS011;1808;53.596;9.972;2022-08-03T02:42:58;8.30;;;6.90;;
3587;SDS011;1808;53.596;9.972;2022-08-03T02:45:25;8.57;;;7.45;;
3587;SDS011;1808;53.596;9.972;2022-08-03T02:47:54;8.02;;;7.22;;
3587;SDS011;1808;53.596;9.972;2022-08-03T02:50:22;7.85;;;7.15;;
3587;SDS011;1808;53.596;9.972;2022-08-03T02:52:49;8.80;;;6.80;;
3587;SDS011;1808;53.596;9.972;2022-08-03T02:55:17;7.68;;;6.88;;
3587;SDS011;1808;53.596;9.972;2022-08-03T02:57:46;10.65;;;7.30;;
3587;SDS011;1808;53.596;9.972;2022-08-03T03:00:12;8.95;;;7.90;;
3587;SDS011;1808;53.596;9.972;2022-08-03T03:02:39;8.40;;;7.55;;
3587;SDS011;1808;53.596;9.972;2022-08-03T03:05:06;8.95;;;8.05;;
3587;SDS011;1808;53.596;9.972;2022-08-03T03:07:34;9.32;;;7.65;;
3587;SDS011;1808;53.596;9.972;2022-08-03T03:10:01;8.77;;;7.88;;
3587;SDS011;1808;53.596;9.972;2022-08-03T03:12:29;8.27;;;7.47;;
3587;SDS011;1808;53.596;9.972;2022-08-03T03:14:56;9.05;;;7.57;;
3587;SDS011;1808;53.596;9.972;2022-08-03T03:17:23;10.73;;;7.93;;
3587;SDS011;1808;53.596;9.972;2022-08-03T03:19:50;8.82;;;7.40;;
3587;SDS011;1808;53.596;9.972;2022-08-03T03:22:17;8.00;;;7.22;;
3587;SDS011;1808;53.596;9.972;2022-08-03T03:24:43;9.27;;;8.18;;
3587;SDS011;1808;53.596;9.972;2022-08-03T03:27:11;11.18;;;7.43;;
3587;SDS011;1808;53.596;9.972;2022-08-03T03:29:40;8.18;;;7.35;;
3587;SDS011;1808;53.596;9.972;2022-08-03T03:32:06;10.25;;;7.25;;
3587;SDS011;1808;53.596;9.972;2022-08-03T03:34:33;8.45;;;7.35;;
3587;SDS011;1808;53.596;9.972;2022-08-03T03:37:00;8.60;;;7.80;;
3587;SDS011;1808;53.596;9.972;2022-08-03T03:39:26;9.73;;;7.68;;
3587;SDS011;1808;53.596;9.972;2022-08-03T03:41:53;9.07;;;7.63;;
3587;SDS011;1808;53.596;9.972;2022-08-03T03:44:19;8.80;;;7.90;;
3587;SDS011;1808;53.596;9.972;2022-08-03T03:46:47;8.63;;;7.75;;
3587;SDS011;1808;53.596;9.972;2022-08-03T03:49:13;8.55;;;7.63;;
3587;SDS011;1808;53.596;9.972;2022-08-03T03:51:39;9.05;;;7.57;;
3587;SDS011;1808;53.596;9.972;2022-08-03T03:54:06;8.27;;;7.47;;
3587;SDS011;1808;53.596;9.972;2022-08-03T03:56:32;8.63;;;7.60;;
3587;SDS011;1808;53.596;9.972;2022-08-03T03:58:58;8.55;;;7.75;;
3587;SDS011;1808;53.596;9.972;2022-08-03T04:01:25;8.00;;;7.25;;
3587;SDS011;1808;53.596;9.972;2022-08-03T04:03:53;8.93;;;7.85;;
3587;SDS011;1808;53.596;9.972;2022-08-03T04:06:19;8.75;;;7.55;;
3587;SDS011;1808;53.596;9.972;2022-08-03T04:09:03;8.63;;;7.72;;
3587;SDS011;1808;53.596;9.972;2022-08-03T04:11:48;8.48;;;7.68;;
3587;SDS011;1808;53.596;9.972;2022-08-03T04:14:16;8.73;;;7.90;;
3587;SDS011;1808;53.596;9.972;2022-08-03T04:16:45;9.25;;;7.47;;
3587;SDS011;1808;53.596;9.972;2022-08-03T04:19:16;9.35;;;8.50;;
3587;SDS011;1808;53.596;9.972;2022-08-03T04:21:44;10.65;;;8.07;;
3587;SDS011;1808;53.596;9.972;2022-08-03T04:24:13;9.45;;;8.30;;
3587;SDS011;1808;53.596;9.972;2022-08-03T04:26:40;11.20;;;8.93;;
3587;SDS011;1808;53.596;9.972;2022-08-03T04:29:08;10.30;;;8.25;;
3587;SDS011;1808;53.596;9.972;2022-08-03T04:31:35;10.07;;;8.40;;
3587;SDS011;1808;53.596;9.972;2022-08-03T04:34:03;10.25;;;9.00;;
3587;SDS011;1808;53.596;9.972;2022-08-03T04:36:31;12.15;;;8.48;;
3587;SDS011;1808;53.596;9.972;2022-08-03T04:39:01;9.43;;;8.50;;
3587;SDS011;1808;53.596;9.972;2022-08-03T04:41:29;12.60;;;8.40;;
3587;SDS011;1808;53.596;9.972;2022-08-03T04:43:56;13.50;;;8.68;;
3587;SDS011;1808;53.596;9.972;2022-08-03T04:46:25;9.43;;;8.52;;
3587;SDS011;1808;53.596;9.972;2022-08-03T04:48:52;9.00;;;8.10;;
3587;SDS011;1808;53.596;9.972;2022-08-03T04:51:19;9.00;;;7.95;;
3587;SDS011;1808;53.596;9.972;2022-08-03T04:53:47;8.73;;;7.85;;
3587;SDS011;1808;53.596;9.972;2022-08-03T04:56:13;10.68;;;8.07;;
3587;SDS011;1808;53.596;9.972;2022-08-03T04:58:40;10.30;;;8.07;;
3587;SDS011;1808;53.596;9.972;2022-08-03T05:01:06;11.35;;;8.80;;
3587;SDS011;1808;53.596;9.972;2022-08-03T05:03:32;11.20;;;8.25;;
3587;SDS011;1808;53.596;9.972;2022-08-03T05:05:59;12.82;;;8.27;;
3587;SDS011;1808;53.596;9.972;2022-08-03T05:08:25;11.23;;;8.68;;
3587;SDS011;1808;53.596;9.972;2022-08-03T05:10:53;9.45;;;7.75;;
3587;SDS011;1808;53.596;9.972;2022-08-03T05:13:19;9.68;;;8.50;;
3587;SDS011;1808;53.596;9.972;2022-08-03T05:15:46;9.35;;;8.48;;
3587;SDS011;1808;53.596;9.972;2022-08-03T05:18:13;11.70;;;8.63;;
3587;SDS011;1808;53.596;9.972;2022-08-03T05:20:39;9.70;;;8.40;;
3587;SDS011;1808;53.596;9.972;2022-08-03T05:23:05;9.40;;;8.50;;
3587;SDS011;1808;53.596;9.972;2022-08-03T05:25:32;11.73;;;8.07;;
3587;SDS011;1808;53.596;9.972;2022-08-03T05:27:59;11.40;;;9.35;;
3587;SDS011;1808;53.596;9.972;2022-08-03T05:30:26;10.55;;;9.05;;
3587;SDS011;1808;53.596;9.972;2022-08-03T05:32:52;16.45;;;9.00;;
3587;SDS011;1808;53.596;9.972;2022-08-03T05:35:19;13.38;;;8.55;;
3587;SDS011;1808;53.596;9.972;2022-08-03T05:37:45;12.38;;;9.23;;
3587;SDS011;1808;53.596;9.972;2022-08-03T05:40:11;19.40;;;8.90;;
3587;SDS011;1808;53.596;9.972;2022-08-03T05:42:38;10.73;;;8.10;;
3587;SDS011;1808;53.596;9.972;2022-08-03T05:45:06;13.15;;;8.13;;
3587;SDS011;1808;53.596;9.972;2022-08-03T05:47:39;9.80;;;7.72;;
3587;SDS011;1808;53.596;9.972;2022-08-03T05:50:06;13.63;;;7.90;;
3587;SDS011;1808;53.596;9.972;2022-08-03T05:52:33;12.95;;;7.90;;
3587;SDS011;1808;53.596;9.972;2022-08-03T05:54:59;12.48;;;7.82;;
3587;SDS011;1808;53.596;9.972;2022-08-03T05:57:25;14.27;;;8.02;;
3587;SDS011;1808;53.596;9.972;2022-08-03T05:59:52;11.02;;;7.75;;
3587;SDS011;1808;53.596;9.972;2022-08-03T06:02:19;8.75;;;7.85;;
3587;SDS011;1808;53.596;9.972;2022-08-03T06:04:48;8.43;;;7.18;;
3587;SDS011;1808;53.596;9.972;2022-08-03T06:07:14;10.38;;;7.32;;
3587;SDS011;1808;53.596;9.972;2022-08-03T06:09:40;8.52;;;7.05;;
3587;SDS011;1808;53.596;9.972;2022-08-03T06:12:06;8.90;;;7.28;;
3587;SDS011;1808;53.596;9.972;2022-08-03T06:14:33;8.88;;;7.35;;
3587;SDS011;1808;53.596;9.972;2022-08-03T06:16:59;11.40;;;7.25;;
3587;SDS011;1808;53.596;9.972;2022-08-03T06:19:27;11.18;;;7.50;;
3587;SDS011;1808;53.596;9.972;2022-08-03T06:21:53;14.63;;;7.00;;
3587;SDS011;1808;53.596;9.972;2022-08-03T06:24:20;11.88;;;7.35;;
3587;SDS011;1808;53.596;9.972;2022-08-03T06:26:46;15.23;;;6.80;;
3587;SDS011;1808;53.596;9.972;2022-08-03T06:29:13;8.13;;;6.13;;
3587;SDS011;1808;53.596;9.972;2022-08-03T06:31:39;7.28;;;6.57;;
3587;SDS011;1808;53.596;9.972;2022-08-03T06:34:05;9.18;;;6.88;;
3587;SDS011;1808;53.596;9.972;2022-08-03T06:36:33;11.90;;;6.60;;
3587;SDS011;1808;53.596;9.972;2022-08-03T06:38:59;10.50;;;5.88;;
3587;SDS011;1808;53.596;9.972;2022-08-03T06:41:26;10.77;;;6.03;;
3587;SDS011;1808;53.596;9.972;2022-08-03T06:43:53;8.27;;;6.22;;
3587;SDS011;1808;53.596;9.972;2022-08-03T06:46:19;9.82;;;6.20;;
3587;SDS011;1808;53.596;9.972;2022-08-03T06:48:46;11.55;;;6.20;;
3587;SDS011;1808;53.596;9.972;2022-08-03T06:51:12;10.25;;;6.05;;
3587;SDS011;1808;53.596;9.972;2022-08-03T06:53:40;11.32;;;6.07;;
3587;SDS011;1808;53.596;9.972;2022-08-03T06:56:07;10.85;;;6.35;;
3587;SDS011;1808;53.596;9.972;2022-08-03T06:58:33;9.18;;;5.78;;
3587;SDS011;1808;53.596;9.972;2022-08-03T07:01:00;12.90;;;5.80;;
3587;SDS011;1808;53.596;9.972;2022-08-03T07:03:26;14.23;;;5.50;;
3587;SDS011;1808;53.596;9.972;2022-08-03T07:05:52;14.18;;;5.80;;
3587;SDS011;1808;53.596;9.972;2022-08-03T07:08:19;8.35;;;5.57;;
3587;SDS011;1808;53.596;9.972;2022-08-03T07:10:46;11.18;;;5.05;;
3587;SDS011;1808;53.596;9.972;2022-08-03T07:13:13;9.57;;;5.35;;
3587;SDS011;1808;53.596;9.972;2022-08-03T07:15:39;11.43;;;5.70;;
3587;SDS011;1808;53.596;9.972;2022-08-03T07:18:06;12.05;;;5.45;;
3587;SDS011;1808;53.596;9.972;2022-08-03T07:20:32;10.85;;;5.25;;
3587;SDS011;1808;53.596;9.972;2022-08-03T07:22:58;9.05;;;4.97;;
3587;SDS011;1808;53.596;9.972;2022-08-03T07:25:25;10.18;;;4.57;;
3587;SDS011;1808;53.596;9.972;2022-08-03T07:27:52;9.73;;;4.70;;
3587;SDS011;1808;53.596;9.972;2022-08-03T07:30:19;8.35;;;4.70;;
3587;SDS011;1808;53.596;9.972;2022-08-03T07:32:45;7.03;;;4.10;;
3587;SDS011;1808;53.596;9.972;2022-08-03T07:35:11;8.80;;;4.63;;
3587;SDS011;1808;53.596;9.972;2022-08-03T07:37:38;7.80;;;4.28;;
3587;SDS011;1808;53.596;9.972;2022-08-03T07:40:04;7.55;;;3.95;;
3587;SDS011;1808;53.596;9.972;2022-08-03T07:42:31;6.25;;;3.10;;
3587;SDS011;1808;53.596;9.972;2022-08-03T07:44:59;5.57;;;3.20;;
3587;SDS011;1808;53.596;9.972;2022-08-03T07:47:26;5.72;;;3.10;;
3587;SDS011;1808;53.596;9.972;2022-08-03T07:49:53;5.25;;;3.13;;
3587;SDS011;1808;53.596;9.972;2022-08-03T07:52:20;3.58;;;3.08;;
3587;SDS011;1808;53.596;9.972;2022-08-03T07:55:04;7.07;;;3.38;;
3587;SDS011;1808;53.596;9.972;2022-08-03T07:57:31;8.25;;;3.58;;
3587;SDS011;1808;53.596;9.972;2022-08-03T07:59:59;5.65;;;3.17;;
3587;SDS011;1808;53.596;9.972;2022-08-03T08:02:25;5.60;;;3.17;;
3587;SDS011;1808;53.596;9.972;2022-08-03T08:04:52;8.52;;;3.78;;
3587;SDS011;1808;53.596;9.972;2022-08-03T08:07:18;8.70;;;3.50;;
3587;SDS011;1808;53.596;9.972;2022-08-03T08:09:45;3.72;;;3.10;;
3587;SDS011;1808;53.596;9.972;2022-08-03T08:12:11;4.78;;;3.22;;
3587;SDS011;1808;53.596;9.972;2022-08-03T08:14:37;4.30;;;3.10;;
3587;SDS011;1808;53.596;9.972;2022-08-03T08:17:07;6.50;;;3.55;;
3587;SDS011;1808;53.596;9.972;2022-08-03T08:19:33;5.25;;;3.53;;
3587;SDS011;1808;53.596;9.972;2022-08-03T08:21:59;5.85;;;3.30;;
3587;SDS011;1808;53.596;9.972;2022-08-03T08:24:25;4.95;;;3.80;;
3587;SDS011;1808;53.596;9.972;2022-08-03T08:26:54;4.53;;;3.08;;
3587;SDS011;1808;53.596;9.972;2022-08-03T08:29:20;4.97;;;3.10;;
3587;SDS011;1808;53.596;9.972;2022-08-03T08:31:47;6.07;;;4.00;;
3587;SDS011;1808;53.596;9.972;2022-08-03T08:34:15;8.05;;;4.03;;
3587;SDS011;1808;53.596;9.972;2022-08-03T08:36:42;7.97;;;2.97;;
3587;SDS011;1808;53.596;9.972;2022-08-03T08:39:08;7.25;;;3.00;;
3587;SDS011;1808;53.596;9.972;2022-08-03T08:41:34;8.13;;;3.13;;
3587;SDS011;1808;53.596;9.972;2022-08-03T08:44:01;5.15;;;3.05;;
3587;SDS011;1808;53.596;9.972;2022-08-03T08:46:28;7.95;;;3.35;;
3587;SDS011;1808;53.596;9.972;2022-08-03T08:48:56;8.38;;;2.90;;
3587;SDS011;1808;53.596;9.972;2022-08-03T08:51:28;13.90;;;3.88;;
3587;SDS011;1808;53.596;9.972;2022-08-03T08:53:55;7.20;;;3.00;;
3587;SDS011;1808;53.596;9.972;2022-08-03T08:56:24;7.32;;;3.85;;
3587;SDS011;1808;53.596;9.972;2022-08-03T08:58:52;7.47;;;3.65;;
3587;SDS011;1808;53.596;9.972;2022-08-03T09:01:22;7.18;;;3.20;;
3587;SDS011;1808;53.596;9.972;2022-08-03T09:03:48;15.95;;;3.22;;
3587;SDS011;1808;53.596;9.972;2022-08-03T09:06:15;7.93;;;3.45;;
3587;SDS011;1808;53.596;9.972;2022-08-03T09:08:43;5.60;;;3.80;;
3587;SDS011;1808;53.596;9.972;2022-08-03T09:11:09;7.57;;;3.25;;
3587;SDS011;1808;53.596;9.972;2022-08-03T09:13:36;5.35;;;2.90;;
3587;SDS011;1808;53.596;9.972;2022-08-03T09:16:09;9.48;;;3.08;;
3587;SDS011;1808;53.596;9.972;2022-08-03T09:18:37;8.70;;;3.10;;
3587;SDS011;1808;53.596;9.972;2022-08-03T09:21:13;12.55;;;2.92;;
3587;SDS011;1808;53.596;9.972;2022-08-03T09:23:47;7.90;;;2.67;;
3587;SDS011;1808;53.596;9.972;2022-08-03T09:26:21;5.75;;;2.40;;
3587;SDS011;1808;53.596;9.972;2022-08-03T09:28:53;7.18;;;2.95;;
3587;SDS011;1808;53.596;9.972;2022-08-03T09:33:54;4.25;;;2.58;;
3587;SDS011;1808;53.596;9.972;2022-08-03T09:36:33;6.75;;;2.65;;
3587;SDS011;1808;53.596;9.972;2022-08-03T09:39:02;9.27;;;2.88;;
3587;SDS011;1808;53.596;9.972;2022-08-03T09:41:30;6.18;;;2.50;;
3587;SDS011;1808;53.596;9.972;2022-08-03T09:43:56;9.50;;;2.97;;
3587;SDS011;1808;53.596;9.972;2022-08-03T09:46:23;6.82;;;2.60;;
3587;SDS011;1808;53.596;9.972;2022-08-03T09:48:49;7.63;;;2.53;;
3587;SDS011;1808;53.596;9.972;2022-08-03T09:51:15;9.80;;;2.40;;
3587;SDS011;1808;53.596;9.972;2022-08-03T09:53:44;6.75;;;2.58;;
3587;SDS011;1808;53.596;9.972;2022-08-03T09:56:12;6.18;;;2.47;;
3587;SDS011;1808;53.596;9.972;2022-08-03T09:58:43;7.00;;;2.33;;
3587;SDS011;1808;53.596;9.972;2022-08-03T10:01:10;5.50;;;2.22;;
3587;SDS011;1808;53.596;9.972;2022-08-03T10:03:37;6.90;;;2.42;;
3587;SDS011;1808;53.596;9.972;2022-08-03T10:06:13;6.25;;;2.22;;
3587;SDS011;1808;53.596;9.972;2022-08-03T10:08:40;6.65;;;2.72;;
3587;SDS011;1808;53.596;9.972;2022-08-03T10:11:06;8.15;;;2.92;;
3587;SDS011;1808;53.596;9.972;2022-08-03T10:13:34;6.80;;;2.63;;
3587;SDS011;1808;53.596;9.972;2022-08-03T10:16:01;7.55;;;2.88;;
3587;SDS011;1808;53.596;9.972;2022-08-03T10:18:28;6.10;;;2.33;;
3587;SDS011;1808;53.596;9.972;2022-08-03T10:20:57;7.75;;;3.15;;
3587;SDS011;1808;53.596;9.972;2022-08-03T10:23:27;7.55;;;2.40;;
3587;SDS011;1808;53.596;9.972;2022-08-03T10:25:57;5.78;;;2.20;;
3587;SDS011;1808;53.596;9.972;2022-08-03T10:28:24;8.23;;;2.70;;
3587;SDS011;1808;53.596;9.972;2022-08-03T10:30:52;5.30;;;2.28;;
3587;SDS011;1808;53.596;9.972;2022-08-03T10:33:20;6.65;;;2.45;;
3587;SDS011;1808;53.596;9.972;2022-08-03T10:35:49;8.63;;;2.25;;
3587;SDS011;1808;53.596;9.972;2022-08-03T10:38:19;7.63;;;2.40;;
3587;SDS011;1808;53.596;9.972;2022-08-03T10:40:47;8.10;;;2.30;;
3587;SDS011;1808;53.596;9.972;2022-08-03T10:43:18;10.98;;;2.58;;
3587;SDS011;1808;53.596;9.972;2022-08-03T10:45:45;6.38;;;2.47;;
3587;SDS011;1808;53.596;9.972;2022-08-03T10:48:13;6.25;;;2.38;;
3587;SDS011;1808;53.596;9.972;2022-08-03T10:50:40;5.30;;;2.70;;
3587;SDS011;1808;53.596;9.972;2022-08-03T10:53:08;8.27;;;2.40;;
3587;SDS011;1808;53.596;9.972;2022-08-03T10:55:35;8.20;;;2.38;;
3587;SDS011;1808;53.596;9.972;2022-08-03T11:01:15;6.30;;;2.47;;
3587;SDS011;1808;53.596;9.972;2022-08-03T11:06:42;6.43;;;2.47;;
3587;SDS011;1808;53.596;9.972;2022-08-03T11:09:13;5.38;;;2.70;;
3587;SDS011;1808;53.596;9.972;2022-08-03T11:11:41;9.75;;;2.70;;
3587;SDS011;1808;53.596;9.972;2022-08-03T11:14:09;9.52;;;2.78;;
3587;SDS011;1808;53.596;9.972;2022-08-03T11:16:37;6.68;;;2.13;;
3587;SDS011;1808;53.596;9.972;2022-08-03T11:19:06;10.52;;;2.55;;
3587;SDS011;1808;53.596;9.972;2022-08-03T11:21:53;7.32;;;2.55;;
3587;SDS011;1808;53.596;9.972;2022-08-03T11:27:25;7.03;;;2.50;;
3587;SDS011;1808;53.596;9.972;2022-08-03T11:29:53;8.50;;;2.40;;
3587;SDS011;1808;53.596;9.972;2022-08-03T11:35:39;7.90;;;2.63;;
3587;SDS011;1808;53.596;9.972;2022-08-03T11:38:26;7.10;;;2.53;;
3587;SDS011;1808;53.596;9.972;2022-08-03T11:40:52;7.35;;;2.50;;
3587;SDS011;1808;53.596;9.972;2022-08-03T11:46:11;6.10;;;2.85;;
3587;SDS011;1808;53.596;9.972;2022-08-03T11:48:43;7.43;;;2.42;;
3587;SDS011;1808;53.596;9.972;2022-08-03T11:51:18;9.95;;;3.20;;
3587;SDS011;1808;53.596;9.972;2022-08-03T11:53:46;6.68;;;2.63;;
3587;SDS011;1808;53.596;9.972;2022-08-03T11:56:16;11.37;;;3.40;;
3587;SDS011;1808;53.596;9.972;2022-08-03T11:58:45;7.30;;;2.80;;
3587;SDS011;1808;53.596;9.972;2022-08-03T12:01:11;6.50;;;2.40;;
3587;SDS011;1808;53.596;9.972;2022-08-03T12:03:40;8.07;;;2.40;;
3587;SDS011;1808;53.596;9.972;2022-08-03T12:06:08;7.53;;;2.15;;
3587;SDS011;1808;53.596;9.972;2022-08-03T12:08:35;8.10;;;2.17;;
3587;SDS011;1808;53.596;9.972;2022-08-03T12:11:03;9.73;;;3.22;;
3587;SDS011;1808;53.596;9.972;2022-08-03T12:13:38;13.43;;;2.50;;
3587;SDS011;1808;53.596;9.972;2022-08-03T12:16:05;9.05;;;2.55;;
3587;SDS011;1808;53.596;9.972;2022-08-03T12:18:32;4.47;;;2.38;;
3587;SDS011;1808;53.596;9.972;2022-08-03T12:21:02;6.80;;;2.38;;
3587;SDS011;1808;53.596;9.972;2022-08-03T12:23:30;6.82;;;3.03;;
3587;SDS011;1808;53.596;9.972;2022-08-03T12:26:00;9.18;;;2.65;;
3587;SDS011;1808;53.596;9.972;2022-08-03T12:28:29;5.90;;;2.63;;
3587;SDS011;1808;53.596;9.972;2022-08-03T12:30:55;6.30;;;2.92;;
3587;SDS011;1808;53.596;9.972;2022-08-03T12:33:26;7.80;;;2.60;;
3587;SDS011;1808;53.596;9.972;2022-08-03T12:36:03;9.35;;;2.60;;
3587;SDS011;1808;53.596;9.972;2022-08-03T12:38:31;8.38;;;2.83;;
3587;SDS011;1808;53.596;9.972;2022-08-03T12:40:59;7.05;;;2.55;;
3587;SDS011;1808;53.596;9.972;2022-08-03T12:43:26;7.95;;;2.55;;
3587;SDS011;1808;53.596;9.972;2022-08-03T12:46:10;7.65;;;2.35;;
3587;SDS011;1808;53.596;9.972;2022-08-03T12:48:56;7.18;;;3.00;;
3587;SDS011;1808;53.596;9.972;2022-08-03T12:51:27;6.70;;;2.35;;
3587;SDS011;1808;53.596;9.972;2022-08-03T12:53:55;7.68;;;2.50;;
3587;SDS011;1808;53.596;9.972;2022-08-03T12:56:22;7.85;;;2.20;;
3587;SDS011;1808;53.596;9.972;2022-08-03T12:58:48;10.77;;;2.60;;
3587;SDS011;1808;53.596;9.972;2022-08-03T13:01:16;7.93;;;2.38;;
3587;SDS011;1808;53.596;9.972;2022-08-03T13:03:44;7.45;;;2.50;;
3587;SDS011;1808;53.596;9.972;2022-08-03T13:06:12;9.00;;;2.90;;
3587;SDS011;1808;53.596;9.972;2022-08-03T13:08:39;9.15;;;3.22;;
3587;SDS011;1808;53.596;9.972;2022-08-03T13:11:19;8.38;;;3.00;;
3587;SDS011;1808;53.596;9.972;2022-08-03T13:13:46;7.63;;;3.10;;
3587;SDS011;1808;53.596;9.972;2022-08-03T13:16:13;6.97;;;2.85;;
3587;SDS011;1808;53.596;9.972;2022-08-03T13:18:41;8.13;;;2.65;;
3587;SDS011;1808;53.596;9.972;2022-08-03T13:21:08;8.27;;;2.80;;
3587;SDS011;1808;53.596;9.972;2022-08-03T13:23:35;11.05;;;3.22;;
3587;SDS011;1808;53.596;9.972;2022-08-03T13:26:04;7.95;;;2.72;;
3587;SDS011;1808;53.596;9.972;2022-08-03T13:28:31;11.75;;;2.70;;
3587;SDS011;1808;53.596;9.972;2022-08-03T13:30:58;9.55;;;3.03;;
3587;SDS011;1808;53.596;9.972;2022-08-03T13:33:25;7.63;;;2.30;;
3587;SDS011;1808;53.596;9.972;2022-08-03T13:35:53;6.43;;;2.70;;
3587;SDS011;1808;53.596;9.972;2022-08-03T13:38:20;5.53;;;2.78;;
3587;SDS011;1808;53.596;9.972;2022-08-03T13:40:47;10.27;;;3.00;;
3587;SDS011;1808;53.596;9.972;2022-08-03T13:43:13;8.63;;;3.10;;
3587;SDS011;1808;53.596;9.972;2022-08-03T13:45:40;8.60;;;3.20;;
3587;SDS011;1808;53.596;9.972;2022-08-03T13:48:06;7.22;;;3.22;;
3587;SDS011;1808;53.596;9.972;2022-08-03T13:50:33;9.90;;;2.72;;
3587;SDS011;1808;53.596;9.972;2022-08-03T13:53:01;7.88;;;2.85;;
3587;SDS011;1808;53.596;9.972;2022-08-03T13:55:27;9.18;;;2.95;;
3587;SDS011;1808;53.596;9.972;2022-08-03T13:57:54;6.88;;;2.88;;
3587;SDS011;1808;53.596;9.972;2022-08-03T14:00:21;7.78;;;2.78;;
3587;SDS011;1808;53.596;9.972;2022-08-03T14:02:50;9.65;;;3.22;;
3587;SDS011;1808;53.596;9.972;2022-08-03T14:05:16;8.25;;;2.50;;
3587;SDS011;1808;53.596;9.972;2022-08-03T14:07:43;12.15;;;2.78;;
3587;SDS011;1808;53.596;9.972;2022-08-03T14:10:11;9.93;;;2.35;;
3587;SDS011;1808;53.596;9.972;2022-08-03T14:12:39;6.65;;;3.00;;
3587;SDS011;1808;53.596;9.972;2022-08-03T14:15:06;6.75;;;2.58;;
3587;SDS011;1808;53.596;9.972;2022-08-03T14:17:34;8.57;;;3.10;;
3587;SDS011;1808;53.596;9.972;2022-08-03T14:20:02;12.27;;;3.00;;
3587;SDS011;1808;53.596;9.972;2022-08-03T14:22:30;9.13;;;3.10;;
3587;SDS011;1808;53.596;9.972;2022-08-03T14:24:59;6.30;;;2.75;;
3587;SDS011;1808;53.596;9.972;2022-08-03T14:27:27;10.43;;;3.97;;
3587;SDS011;1808;53.596;9.972;2022-08-03T14:29:53;9.23;;;2.95;;
3587;SDS011;1808;53.596;9.972;2022-08-03T14:32:23;8.32;;;3.08;;
3587;SDS011;1808;53.596;9.972;2022-08-03T14:34:50;6.70;;;3.00;;
3587;SDS011;1808;53.596;9.972;2022-08-03T14:37:17;8.98;;;3.30;;
3587;SDS011;1808;53.596;9.972;2022-08-03T14:39:44;8.70;;;3.30;;
3587;SDS011;1808;53.596;9.972;2022-08-03T14:42:12;10.80;;;3.17;;
3587;SDS011;1808;53.596;9.972;2022-08-03T14:44:40;6.38;;;2.42;;
3587;SDS011;1808;53.596;9.972;2022-08-03T14:47:10;7.60;;;2.63;;
3587;SDS011;1808;53.596;9.972;2022-08-03T14:49:39;7.32;;;2.78;;
3587;SDS011;1808;53.596;9.972;2022-08-03T14:52:07;12.63;;;3.05;;
3587;SDS011;1808;53.596;9.972;2022-08-03T14:54:33;10.27;;;3.03;;
3587;SDS011;1808;53.596;9.972;2022-08-03T14:57:01;10.05;;;2.78;;
3587;SDS011;1808;53.596;9.972;2022-08-03T14:59:28;7.35;;;3.13;;
3587;SDS011;1808;53.596;9.972;2022-08-03T15:01:55;10.73;;;3.15;;
3587;SDS011;1808;53.596;9.972;2022-08-03T15:04:22;12.07;;;5.13;;
3587;SDS011;1808;53.596;9.972;2022-08-03T15:06:49;7.45;;;3.67;;
3587;SDS011;1808;53.596;9.972;2022-08-03T15:09:15;9.75;;;3.40;;
3587;SDS011;1808;53.596;9.972;2022-08-03T15:11:42;7.43;;;3.13;;
3587;SDS011;1808;53.596;9.972;2022-08-03T15:14:08;6.70;;;2.90;;
3587;SDS011;1808;53.596;9.972;2022-08-03T15:16:35;8.43;;;3.38;;
3587;SDS011;1808;53.596;9.972;2022-08-03T15:19:03;9.73;;;3.00;;
3587;SDS011;1808;53.596;9.972;2022-08-03T15:21:30;5.07;;;2.50;;
3587;SDS011;1808;53.596;9.972;2022-08-03T15:23:56;9.05;;;3.13;;
3587;SDS011;1808;53.596;9.972;2022-08-03T15:26:23;15.45;;;3.60;;
3587;SDS011;1808;53.596;9.972;2022-08-03T15:28:50;9.80;;;3.20;;
3587;SDS011;1808;53.596;9.972;2022-08-03T15:31:19;8.65;;;2.70;;
3587;SDS011;1808;53.596;9.972;2022-08-03T15:33:46;8.48;;;2.65;;
3587;SDS011;1808;53.596;9.972;2022-08-03T15:36:15;7.07;;;3.10;;
3587;SDS011;1808;53.596;9.972;2022-08-03T15:38:42;10.27;;;2.70;;